sensor_id;sensor_type;location;lat;lon;timestamp;pressure;altitude;pressure_sealevel;temperature;humidity
48041;BME280;33815;48.386;11.738;2023-02-11T00:00:47;98465.41;;;-7.15;100.00
48041;BME280;33815;48.386;11.738;2023-02-11T00:03:12;98465.41;;;-7.19;100.00
48041;BME280;33815;48.386;11.738;2023-02-11T00:05:37;98449.31;;;-7.29;100.00
48041;BME280;33815;48.386;11.738;2023-02-11T00:08:02;98462.84;;;-7.23;100.00
48041;BME280;33815;48.386;11.738;2023-02-11T00:10:28;98458.66;;;-7.16;100.00
48041;BME280;33815;48.386;11.738;2023-02-11T00:12:54;98451.88;;;-7.18;100.00
48041;BME280;33815;48.386;11.738;2023-02-11T00:15:19;98459.47;;;-7.23;100.00
48041;BME280;33815;48.386;11.738;2023-02-11T00:17:45;98469.59;;;-7.23;100.00
48041;BME280;33815;48.386;11.738;2023-02-11T00:20:10;98462.81;;;-7.27;100.00
48041;BME280;33815;48.386;11.738;2023-02-11T00:22:35;98460.28;;;-7.32;100.00
48041;BME280;33815;48.386;11.738;2023-02-11T00:25:01;98453.53;;;-7.31;100.00
48041;BME280;33815;48.386;11.738;2023-02-11T00:27:26;98451.81;;;-7.32;100.00
48041;BME280;33815;48.386;11.738;2023-02-11T00:29:51;98441.69;;;-7.35;100.00
48041;BME280;33815;48.386;11.738;2023-02-11T00:32:17;98453.53;;;-7.31;100.00
48041;BME280;33815;48.386;11.738;2023-02-11T00:34:42;98447.56;;;-7.36;100.00
48041;BME280;33815;48.386;11.738;2023-02-11T00:37:07;98444.19;;;-7.43;100.00
48041;BME280;33815;48.386;11.738;2023-02-11T00:39:33;98447.56;;;-7.44;100.00
48041;BME280;33815;48.386;11.738;2023-02-11T00:41:58;98437.38;;;-7.55;100.00
48041;BME280;33815;48.386;11.738;2023-02-11T00:44:23;98446.66;;;-7.59;100.00
48041;BME280;33815;48.386;11.738;2023-02-11T00:46:49;98445.78;;;-7.62;100.00
48041;BME280;33815;48.386;11.738;2023-02-11T00:49:14;98446.59;;;-7.66;100.00
48041;BME280;33815;48.386;11.738;2023-02-11T00:51:40;98443.22;;;-7.70;100.00
48041;BME280;33815;48.386;11.738;2023-02-11T00:54:06;98438.13;;;-7.75;100.00
48041;BME280;33815;48.386;11.738;2023-02-11T00:56:31;98433.03;;;-7.81;100.00
48041;BME280;33815;48.386;11.738;2023-02-11T00:58:57;98448.31;;;-7.68;100.00
48041;BME280;33815;48.386;11.738;2023-02-11T01:01:22;98450.78;;;-7.71;100.00
48041;BME280;33815;48.386;11.738;2023-02-11T01:03:48;98438.13;;;-7.78;100.00
48041;BME280;33815;48.386;11.738;2023-02-11T01:06:13;98436.41;;;-7.82;100.00
48041;BME280;33815;48.386;11.738;2023-02-11T01:08:38;98428.78;;;-7.88;100.00
48041;BME280;33815;48.386;11.738;2023-02-11T01:11:07;98437.25;;;-7.81;100.00
48041;BME280;33815;48.386;11.738;2023-02-11T01:13:35;98436.38;;;-7.86;100.00
48041;BME280;33815;48.386;11.738;2023-02-11T01:16:02;98426.25;;;-7.91;100.00
48041;BME280;33815;48.386;11.738;2023-02-11T01:18:27;98440.59;;;-7.87;100.00
48041;BME280;33815;48.386;11.738;2023-02-11T01:20:53;98440.59;;;-7.87;100.00
48041;BME280;33815;48.386;11.738;2023-02-11T01:23:19;98440.63;;;-7.79;100.00
48041;BME280;33815;48.386;11.738;2023-02-11T01:25:45;98442.28;;;-7.84;100.00
48041;BME280;33815;48.386;11.738;2023-02-11T01:28:22;98429.56;;;-7.97;100.00
48041;BME280;33815;48.386;11.738;2023-02-11T01:30:47;98448.19;;;-7.87;100.00
48041;BME280;33815;48.386;11.738;2023-02-11T01:33:13;98443.97;;;-7.86;100.00
48041;BME280;33815;48.386;11.738;2023-02-11T01:35:39;98436.38;;;-7.88;100.00
48041;BME280;33815;48.386;11.738;2023-02-11T01:38:06;98435.50;;;-7.88;100.00
48041;BME280;33815;48.386;11.738;2023-02-11T01:40:31;98432.22;;;-7.80;100.00
48041;BME280;33815;48.386;11.738;2023-02-11T01:42:56;98433.03;;;-7.84;100.00
48041;BME280;33815;48.386;11.738;2023-02-11T01:46:05;98440.63;;;-7.84;100.00
48041;BME280;33815;48.386;11.738;2023-02-11T01:48:41;98418.59;;;-7.99;100.00
48041;BME280;33815;48.386;11.738;2023-02-11T01:51:17;98407.56;;;-8.05;100.00
48041;BME280;33815;48.386;11.738;2023-02-11T01:53:46;98432.97;;;-7.90;100.00
48041;BME280;33815;48.386;11.738;2023-02-11T01:56:31;98412.72;;;-7.96;100.00
48041;BME280;33815;48.386;11.738;2023-02-11T01:59:21;98422.84;;;-7.92;100.00
48041;BME280;33815;48.386;11.738;2023-02-11T02:01:52;98408.44;;;-8.03;100.00
48041;BME280;33815;48.386;11.738;2023-02-11T02:04:22;98400.78;;;-8.13;100.00
48041;BME280;33815;48.386;11.738;2023-02-11T02:06:55;98411.81;;;-8.04;100.00
48041;BME280;33815;48.386;11.738;2023-02-11T02:09:25;98406.75;;;-8.03;100.00
48041;BME280;33815;48.386;11.738;2023-02-11T02:11:51;98403.41;;;-8.00;100.00
48041;BME280;33815;48.386;11.738;2023-02-11T02:14:17;98384.78;;;-8.12;100.00
48041;BME280;33815;48.386;11.738;2023-02-11T02:16:43;98375.47;;;-8.19;100.00
48041;BME280;33815;48.386;11.738;2023-02-11T02:19:23;98384.78;;;-8.16;100.00
48041;BME280;33815;48.386;11.738;2023-02-11T02:27:36;98388.22;;;-7.97;100.00
48041;BME280;33815;48.386;11.738;2023-02-11T02:33:00;98364.50;;;-8.18;100.00
48041;BME280;33815;48.386;11.738;2023-02-11T02:38:16;98360.31;;;-8.10;100.00
48041;BME280;33815;48.386;11.738;2023-02-11T02:40:50;98347.66;;;-8.11;100.00
48041;BME280;33815;48.386;11.738;2023-02-11T02:43:18;98352.72;;;-8.10;100.00
48041;BME280;33815;48.386;11.738;2023-02-11T02:45:44;98335.91;;;-8.06;100.00
48041;BME280;33815;48.386;11.738;2023-02-11T02:48:28;98356.22;;;-7.81;100.00
48041;BME280;33815;48.386;11.738;2023-02-11T02:51:51;98348.69;;;-7.67;100.00
48041;BME280;33815;48.386;11.738;2023-02-11T03:05:47;98335.09;;;-7.96;100.00
48041;BME280;33815;48.386;11.738;2023-02-11T03:10:52;98345.25;;;-7.91;100.00
48041;BME280;33815;48.386;11.738;2023-02-11T03:13:25;98318.19;;;-8.07;100.00
48041;BME280;33815;48.386;11.738;2023-02-11T03:15:54;98325.78;;;-8.04;100.00
48041;BME280;33815;48.386;11.738;2023-02-11T03:18:23;98328.31;;;-8.04;100.00
48041;BME280;33815;48.386;11.738;2023-02-11T03:20:52;98347.72;;;-7.99;100.00
48041;BME280;33815;48.386;11.738;2023-02-11T03:23:20;98340.97;;;-8.00;100.00
48041;BME280;33815;48.386;11.738;2023-02-11T03:25:52;98348.59;;;-7.95;100.00
48041;BME280;33815;48.386;11.738;2023-02-11T03:28:34;98351.22;;;-7.78;100.00
48041;BME280;33815;48.386;11.738;2023-02-11T03:31:16;98345.25;;;-7.86;100.00
48041;BME280;33815;48.386;11.738;2023-02-11T03:33:53;98344.38;;;-7.92;100.00
48041;BME280;33815;48.386;11.738;2023-02-11T03:36:26;98325.78;;;-7.97;100.00
48041;BME280;33815;48.386;11.738;2023-02-11T03:38:55;98314.84;;;-7.99;100.00
48041;BME280;33815;48.386;11.738;2023-02-11T03:41:22;98335.16;;;-7.83;100.00
48041;BME280;33815;48.386;11.738;2023-02-11T03:43:52;98340.25;;;-7.71;100.00
48041;BME280;33815;48.386;11.738;2023-02-11T03:46:20;98342.84;;;-7.49;100.00
48041;BME280;33815;48.386;11.738;2023-02-11T03:48:53;98332.72;;;-7.51;100.00
48041;BME280;33815;48.386;11.738;2023-02-11T03:51:21;98330.22;;;-7.42;100.00
48041;BME280;33815;48.386;11.738;2023-02-11T03:53:49;98350.50;;;-7.23;100.00
48041;BME280;33815;48.386;11.738;2023-02-11T03:56:20;98357.28;;;-7.14;100.00
48041;BME280;33815;48.386;11.738;2023-02-11T03:58:47;98348.84;;;-7.07;100.00
48041;BME280;33815;48.386;11.738;2023-02-11T04:01:13;98368.31;;;-6.97;100.00
48041;BME280;33815;48.386;11.738;2023-02-11T04:03:39;98353.94;;;-6.95;100.00
48041;BME280;33815;48.386;11.738;2023-02-11T04:06:04;98345.50;;;-6.97;100.00
48041;BME280;33815;48.386;11.738;2023-02-11T04:08:29;98340.41;;;-6.86;100.00
48041;BME280;33815;48.386;11.738;2023-02-11T04:10:56;98348.84;;;-6.76;100.00
48041;BME280;33815;48.386;11.738;2023-02-11T04:13:21;98356.47;;;-6.78;100.00
48041;BME280;33815;48.386;11.738;2023-02-11T04:15:46;98366.59;;;-6.78;100.00
48041;BME280;33815;48.386;11.738;2023-02-11T04:18:11;98366.59;;;-6.79;100.00
48041;BME280;33815;48.386;11.738;2023-02-11T04:20:37;98359.84;;;-6.71;100.00
48041;BME280;33815;48.386;11.738;2023-02-11T04:23:02;98366.63;;;-6.81;100.00
48041;BME280;33815;48.386;11.738;2023-02-11T04:25:27;98369.16;;;-6.84;100.00
48041;BME280;33815;48.386;11.738;2023-02-11T04:27:53;98384.38;;;-6.85;100.00
48041;BME280;33815;48.386;11.738;2023-02-11T04:30:18;98370.84;;;-6.92;100.00
48041;BME280;33815;48.386;11.738;2023-02-11T04:32:43;98379.28;;;-6.95;100.00
48041;BME280;33815;48.386;11.738;2023-02-11T04:35:09;98375.94;;;-6.84;100.00
48041;BME280;33815;48.386;11.738;2023-02-11T04:37:34;98378.44;;;-6.72;100.00
48041;BME280;33815;48.386;11.738;2023-02-11T04:40:00;98377.59;;;-6.39;100.00
48041;BME280;33815;48.386;11.738;2023-02-11T04:42:25;98360.72;;;-6.52;100.00
48041;BME280;33815;48.386;11.738;2023-02-11T04:44:50;98383.53;;;-6.47;100.00
48041;BME280;33815;48.386;11.738;2023-02-11T04:47:15;98364.94;;;-6.57;100.00
48041;BME280;33815;48.386;11.738;2023-02-11T04:49:41;98369.13;;;-6.47;100.00
48041;BME280;33815;48.386;11.738;2023-02-11T04:52:07;98368.28;;;-6.44;100.00
48041;BME280;33815;48.386;11.738;2023-02-11T04:54:32;98359.00;;;-6.41;100.00
48041;BME280;33815;48.386;11.738;2023-02-11T04:56:58;98358.97;;;-6.24;100.00
48041;BME280;33815;48.386;11.738;2023-02-11T04:59:23;98352.19;;;-6.23;100.00
48041;BME280;33815;48.386;11.738;2023-02-11T05:01:48;98347.09;;;-6.22;100.00
48041;BME280;33815;48.386;11.738;2023-02-11T05:04:15;98353.84;;;-6.08;100.00
48041;BME280;33815;48.386;11.738;2023-02-11T05:06:40;98338.59;;;-5.97;100.00
48041;BME280;33815;48.386;11.738;2023-02-11T05:09:05;98337.66;;;-5.78;100.00
48041;BME280;33815;48.386;11.738;2023-02-11T05:11:30;98316.50;;;-5.83;100.00
48041;BME280;33815;48.386;11.738;2023-02-11T05:13:56;98332.50;;;-5.61;100.00
48041;BME280;33815;48.386;11.738;2023-02-11T05:16:22;98331.63;;;-5.54;100.00
48041;BME280;33815;48.386;11.738;2023-02-11T05:18:47;98318.09;;;-5.60;100.00
48041;BME280;33815;48.386;11.738;2023-02-11T05:21:17;98305.38;;;-5.59;100.00
48041;BME280;33815;48.386;11.738;2023-02-11T05:23:43;98302.81;;;-5.56;100.00
48041;BME280;33815;48.386;11.738;2023-02-11T05:26:10;98310.31;;;-5.31;100.00
48041;BME280;33815;48.386;11.738;2023-02-11T05:28:36;98328.00;;;-5.16;100.00
48041;BME280;33815;48.386;11.738;2023-02-11T05:31:01;98328.75;;;-5.01;100.00
48041;BME280;33815;48.386;11.738;2023-02-11T05:33:27;98314.34;;;-5.04;100.00
48041;BME280;33815;48.386;11.738;2023-02-11T05:36:00;98337.97;;;-4.88;100.00
48041;BME280;33815;48.386;11.738;2023-02-11T05:38:26;98336.25;;;-4.81;100.00
48041;BME280;33815;48.386;11.738;2023-02-11T05:40:51;98334.50;;;-4.79;100.00
48041;BME280;33815;48.386;11.738;2023-02-11T05:43:17;98329.38;;;-4.73;100.00
48041;BME280;33815;48.386;11.738;2023-02-11T05:45:42;98325.91;;;-4.67;100.00
48041;BME280;33815;48.386;11.738;2023-02-11T05:48:07;98321.66;;;-4.63;100.00
48041;BME280;33815;48.386;11.738;2023-02-11T05:50:32;98314.13;;;-4.71;100.00
48041;BME280;33815;48.386;11.738;2023-02-11T05:52:58;98327.56;;;-4.58;100.00
48041;BME280;33815;48.386;11.738;2023-02-11T05:55:23;98328.38;;;-4.55;100.00
48041;BME280;33815;48.386;11.738;2023-02-11T05:57:48;98325.88;;;-4.59;100.00
48041;BME280;33815;48.386;11.738;2023-02-11T06:00:14;98332.56;;;-4.49;100.00
48041;BME280;33815;48.386;11.738;2023-02-11T06:02:40;98334.31;;;-4.53;100.00
48041;BME280;33815;48.386;11.738;2023-02-11T06:05:05;98319.03;;;-4.54;100.00
48041;BME280;33815;48.386;11.738;2023-02-11T06:07:31;98341.03;;;-4.47;100.00
48041;BME280;33815;48.386;11.738;2023-02-11T06:09:56;98341.03;;;-4.45;100.00
48041;BME280;33815;48.386;11.738;2023-02-11T06:12:21;98330.84;;;-4.45;100.00
48041;BME280;33815;48.386;11.738;2023-02-11T06:14:47;98335.84;;;-4.35;100.00
48041;BME280;33815;48.386;11.738;2023-02-11T06:17:12;98325.53;;;-4.25;100.00
48041;BME280;33815;48.386;11.738;2023-02-11T06:19:37;98317.88;;;-4.21;100.00
48041;BME280;33815;48.386;11.738;2023-02-11T06:22:03;98322.03;;;-4.14;100.00
48041;BME280;33815;48.386;11.738;2023-02-11T06:24:28;98300.94;;;-4.23;100.00
48041;BME280;33815;48.386;11.738;2023-02-11T06:26:53;98311.09;;;-4.22;100.00
48041;BME280;33815;48.386;11.738;2023-02-11T06:29:19;98322.06;;;-4.15;100.00
48041;BME280;33815;48.386;11.738;2023-02-11T06:31:44;98312.75;;;-4.19;100.00
48041;BME280;33815;48.386;11.738;2023-02-11T06:34:09;98325.38;;;-4.10;100.00
48041;BME280;33815;48.386;11.738;2023-02-11T06:36:37;98320.25;;;-4.07;100.00
48041;BME280;33815;48.386;11.738;2023-02-11T06:39:03;98323.69;;;-4.08;100.00
48041;BME280;33815;48.386;11.738;2023-02-11T06:41:28;98308.34;;;-4.05;100.00
48041;BME280;33815;48.386;11.738;2023-02-11T06:43:53;98331.97;;;-3.90;100.00
48041;BME280;33815;48.386;11.738;2023-02-11T06:46:19;98326.00;;;-3.89;100.00
48041;BME280;33815;48.386;11.738;2023-02-11T06:48:44;98328.41;;;-3.75;100.00
48041;BME280;33815;48.386;11.738;2023-02-11T06:51:10;98330.91;;;-3.72;100.00
48041;BME280;33815;48.386;11.738;2023-02-11T06:53:43;98325.78;;;-3.71;100.00
48041;BME280;33815;48.386;11.738;2023-02-11T06:56:12;98324.81;;;-3.62;100.00
48041;BME280;33815;48.386;11.738;2023-02-11T06:58:38;98329.78;;;-3.51;100.00
48041;BME280;33815;48.386;11.738;2023-02-11T07:01:09;98325.50;;;-3.48;100.00
48041;BME280;33815;48.386;11.738;2023-02-11T07:03:36;98326.28;;;-3.44;100.00
48041;BME280;33815;48.386;11.738;2023-02-11T07:06:03;98319.44;;;-3.39;100.00
48041;BME280;33815;48.386;11.738;2023-02-11T07:08:29;98301.66;;;-3.43;100.00
48041;BME280;33815;48.386;11.738;2023-02-11T07:10:55;98303.25;;;-3.36;100.00
48041;BME280;33815;48.386;11.738;2023-02-11T07:13:20;98316.63;;;-3.20;100.00
48041;BME280;33815;48.386;11.738;2023-02-11T07:15:45;98325.09;;;-3.20;100.00
48041;BME280;33815;48.386;11.738;2023-02-11T07:18:10;98328.38;;;-3.12;100.00
48041;BME280;33815;48.386;11.738;2023-02-11T07:20:36;98331.84;;;-3.16;100.00
48041;BME280;33815;48.386;11.738;2023-02-11T07:23:03;98329.88;;;-2.97;100.00
48041;BME280;33815;48.386;11.738;2023-02-11T07:25:28;98306.22;;;-3.06;100.00
48041;BME280;33815;48.386;11.738;2023-02-11T07:27:54;98320.41;;;-2.88;100.00
48041;BME280;33815;48.386;11.738;2023-02-11T07:30:19;98300.06;;;-2.95;100.00
48041;BME280;33815;48.386;11.738;2023-02-11T07:32:44;98323.47;;;-2.69;100.00
48041;BME280;33815;48.386;11.738;2023-02-11T07:35:09;98315.72;;;-2.62;100.00
48041;BME280;33815;48.386;11.738;2023-02-11T07:37:35;98301.78;;;-2.44;100.00
48041;BME280;33815;48.386;11.738;2023-02-11T07:40:00;98301.47;;;-2.27;100.00
48041;BME280;33815;48.386;11.738;2023-02-11T07:42:26;98299.13;;;-2.37;100.00
48041;BME280;33815;48.386;11.738;2023-02-11T07:44:51;98319.41;;;-2.30;100.00
48041;BME280;33815;48.386;11.738;2023-02-11T07:47:16;98305.81;;;-2.32;100.00
48041;BME280;33815;48.386;11.738;2023-02-11T07:49:42;98315.00;;;-2.21;100.00
48041;BME280;33815;48.386;11.738;2023-02-11T07:52:07;98283.34;;;-2.13;100.00
48041;BME280;33815;48.386;11.738;2023-02-11T07:54:32;98293.16;;;-1.93;100.00
48041;BME280;33815;48.386;11.738;2023-02-11T07:56:58;98303.03;;;-1.76;100.00
48041;BME280;33815;48.386;11.738;2023-02-11T07:59:23;98300.88;;;-1.53;100.00
48041;BME280;33815;48.386;11.738;2023-02-11T08:01:49;98305.59;;;-1.35;100.00
48041;BME280;33815;48.386;11.738;2023-02-11T08:04:15;98317.31;;;-1.25;100.00
48041;BME280;33815;48.386;11.738;2023-02-11T08:06:43;98311.38;;;-1.27;100.00
48041;BME280;33815;48.386;11.738;2023-02-11T08:09:12;98322.41;;;-1.23;100.00
48041;BME280;33815;48.386;11.738;2023-02-11T08:11:38;98321.31;;;-1.13;100.00
48041;BME280;33815;48.386;11.738;2023-02-11T08:14:03;98312.69;;;-1.09;100.00
48041;BME280;33815;48.386;11.738;2023-02-11T08:16:31;98302.47;;;-1.09;100.00
48041;BME280;33815;48.386;11.738;2023-02-11T08:18:59;98315.91;;;-1.00;100.00
48041;BME280;33815;48.386;11.738;2023-02-11T08:21:25;98315.97;;;-1.02;100.00
48041;BME280;33815;48.386;11.738;2023-02-11T08:23:51;98313.16;;;-0.93;100.00
48041;BME280;33815;48.386;11.738;2023-02-11T08:26:18;98309.53;;;-0.82;100.00
48041;BME280;33815;48.386;11.738;2023-02-11T08:28:45;98312.63;;;-0.70;100.00
48041;BME280;33815;48.386;11.738;2023-02-11T08:31:16;98309.69;;;-0.54;100.00
48041;BME280;33815;48.386;11.738;2023-02-11T08:33:42;98289.06;;;-0.49;100.00
48041;BME280;33815;48.386;11.738;2023-02-11T08:36:13;98286.91;;;-0.65;100.00
48041;BME280;33815;48.386;11.738;2023-02-11T08:38:39;98300.78;;;-0.39;100.00
48041;BME280;33815;48.386;11.738;2023-02-11T08:41:04;98274.53;;;-0.47;100.00
48041;BME280;33815;48.386;11.738;2023-02-11T08:43:30;98301.47;;;-0.34;100.00
48041;BME280;33815;48.386;11.738;2023-02-11T08:45:55;98312.22;;;-0.20;98.89
48041;BME280;33815;48.386;11.738;2023-02-11T08:48:21;98308.66;;;-0.14;99.22
48041;BME280;33815;48.386;11.738;2023-02-11T08:50:46;98296.59;;;-0.10;98.46
48041;BME280;33815;48.386;11.738;2023-02-11T08:53:11;98281.34;;;-0.15;99.18
48041;BME280;33815;48.386;11.738;2023-02-11T08:55:36;98292.13;;;-0.04;99.22
48041;BME280;33815;48.386;11.738;2023-02-11T08:58:02;98276.72;;;-0.02;98.44
48041;BME280;33815;48.386;11.738;2023-02-11T09:00:27;98279.19;;;0.01;97.79
48041;BME280;33815;48.386;11.738;2023-02-11T09:02:52;98271.94;;;0.17;97.55
48041;BME280;33815;48.386;11.738;2023-02-11T09:05:18;98265.28;;;0.40;94.29
48041;BME280;33815;48.386;11.738;2023-02-11T09:07:43;98268.31;;;0.53;93.41
48041;BME280;33815;48.386;11.738;2023-02-11T09:10:08;98271.41;;;0.64;91.38
48041;BME280;33815;48.386;11.738;2023-02-11T09:12:33;98276.31;;;0.72;91.07
48041;BME280;33815;48.386;11.738;2023-02-11T09:14:59;98281.72;;;0.62;90.33
48041;BME280;33815;48.386;11.738;2023-02-11T09:17:24;98293.59;;;0.93;89.16
48041;BME280;33815;48.386;11.738;2023-02-11T09:19:49;98288.91;;;1.06;89.89
48041;BME280;33815;48.386;11.738;2023-02-11T09:22:15;98297.53;;;1.32;89.47
48041;BME280;33815;48.386;11.738;2023-02-11T09:24:40;98279.69;;;1.52;87.77
48041;BME280;33815;48.386;11.738;2023-02-11T09:27:05;98289.53;;;1.40;85.75
48041;BME280;33815;48.386;11.738;2023-02-11T09:29:30;98288.78;;;1.38;88.77
48041;BME280;33815;48.386;11.738;2023-02-11T09:31:56;98292.06;;;1.41;85.54
48041;BME280;33815;48.386;11.738;2023-02-11T09:34:21;98277.84;;;1.31;85.92
48041;BME280;33815;48.386;11.738;2023-02-11T09:36:46;98299.19;;;1.33;83.99
48041;BME280;33815;48.386;11.738;2023-02-11T09:39:17;98292.56;;;1.26;85.93
48041;BME280;33815;48.386;11.738;2023-02-11T09:41:58;98279.84;;;1.73;88.08
48041;BME280;33815;48.386;11.738;2023-02-11T09:44:30;98273.50;;;2.07;84.85
48041;BME280;33815;48.386;11.738;2023-02-11T09:46:59;98279.66;;;2.03;82.51
48041;BME280;33815;48.386;11.738;2023-02-11T09:49:33;98268.50;;;2.04;80.36
48041;BME280;33815;48.386;11.738;2023-02-11T09:52:04;98275.56;;;2.45;79.21
48041;BME280;33815;48.386;11.738;2023-02-11T09:54:54;98267.69;;;2.26;77.05
48041;BME280;33815;48.386;11.738;2023-02-11T09:57:20;98264.34;;;2.23;76.12
48041;BME280;33815;48.386;11.738;2023-02-11T09:59:46;98256.31;;;2.09;76.18
48041;BME280;33815;48.386;11.738;2023-02-11T10:02:26;98273.13;;;1.94;78.55
48041;BME280;33815;48.386;11.738;2023-02-11T10:08:02;98300.00;;;1.60;77.39
48041;BME280;33815;48.386;11.738;2023-02-11T10:10:51;98293.06;;;1.37;77.79
48041;BME280;33815;48.386;11.738;2023-02-11T10:13:34;98289.72;;;1.35;79.71
48041;BME280;33815;48.386;11.738;2023-02-11T10:16:42;98290.25;;;1.45;78.74
48041;BME280;33815;48.386;11.738;2023-02-11T10:19:34;98298.16;;;1.64;79.72
48041;BME280;33815;48.386;11.738;2023-02-11T10:22:11;98279.84;;;2.22;80.72
48041;BME280;33815;48.386;11.738;2023-02-11T10:24:40;98284.56;;;3.23;82.66
48041;BME280;33815;48.386;11.738;2023-02-11T10:27:15;98267.72;;;4.35;72.55
48041;BME280;33815;48.386;11.738;2023-02-11T10:29:58;98249.59;;;4.17;67.99
48041;BME280;33815;48.386;11.738;2023-02-11T10:32:38;98264.50;;;4.10;71.39
48041;BME280;33815;48.386;11.738;2023-02-11T10:35:15;98262.38;;;4.20;69.65
48041;BME280;33815;48.386;11.738;2023-02-11T10:37:42;98246.03;;;4.39;67.87
48041;BME280;33815;48.386;11.738;2023-02-11T10:40:25;98241.34;;;4.47;68.04
48041;BME280;33815;48.386;11.738;2023-02-11T10:42:53;98226.19;;;4.95;69.61
48041;BME280;33815;48.386;11.738;2023-02-11T10:45:27;98233.06;;;5.31;64.16
48041;BME280;33815;48.386;11.738;2023-02-11T10:47:54;98225.22;;;4.97;63.83
48041;BME280;33815;48.386;11.738;2023-02-11T10:50:27;98239.91;;;4.60;64.69
48041;BME280;33815;48.386;11.738;2023-02-11T10:53:11;98234.13;;;4.36;65.20
48041;BME280;33815;48.386;11.738;2023-02-11T10:55:36;98232.88;;;4.45;67.27
48041;BME280;33815;48.386;11.738;2023-02-11T10:58:02;98208.25;;;4.92;64.45
48041;BME280;33815;48.386;11.738;2023-02-11T11:00:37;98213.81;;;4.84;65.77
48041;BME280;33815;48.386;11.738;2023-02-11T11:03:15;98209.38;;;4.69;65.57
48041;BME280;33815;48.386;11.738;2023-02-11T11:05:54;98213.66;;;4.87;65.30
48041;BME280;33815;48.386;11.738;2023-02-11T11:08:19;98210.69;;;4.95;64.82
48041;BME280;33815;48.386;11.738;2023-02-11T11:11:06;98221.34;;;4.89;63.47
48041;BME280;33815;48.386;11.738;2023-02-11T11:13:35;98206.25;;;4.79;63.35
48041;BME280;33815;48.386;11.738;2023-02-11T11:18:39;98195.34;;;4.74;63.53
48041;BME280;33815;48.386;11.738;2023-02-11T11:21:10;98206.66;;;4.72;64.22
48041;BME280;33815;48.386;11.738;2023-02-11T11:23:38;98195.50;;;4.89;63.72
48041;BME280;33815;48.386;11.738;2023-02-11T11:26:10;98199.66;;;4.74;63.79
48041;BME280;33815;48.386;11.738;2023-02-11T11:28:49;98184.16;;;4.74;63.08
48041;BME280;33815;48.386;11.738;2023-02-11T11:31:18;98210.25;;;5.04;63.47
48041;BME280;33815;48.386;11.738;2023-02-11T11:33:46;98219.25;;;4.78;62.76
48041;BME280;33815;48.386;11.738;2023-02-11T11:36:37;98224.56;;;4.75;63.23
48041;BME280;33815;48.386;11.738;2023-02-11T11:39:17;98214.16;;;4.76;63.85
48041;BME280;33815;48.386;11.738;2023-02-11T11:41:52;98218.28;;;4.80;63.04
48041;BME280;33815;48.386;11.738;2023-02-11T11:44:29;98209.84;;;4.77;63.13
48041;BME280;33815;48.386;11.738;2023-02-11T11:54:55;98196.31;;;5.42;61.55
48041;BME280;33815;48.386;11.738;2023-02-11T11:57:26;98187.25;;;5.51;61.41
48041;BME280;33815;48.386;11.738;2023-02-11T11:59:56;98170.19;;;5.64;60.88
48041;BME280;33815;48.386;11.738;2023-02-11T12:02:39;98182.03;;;5.35;60.96
48041;BME280;33815;48.386;11.738;2023-02-11T12:05:13;98188.34;;;5.11;62.53
48041;BME280;33815;48.386;11.738;2023-02-11T12:08:08;98179.53;;;5.33;65.63
48041;BME280;33815;48.386;11.738;2023-02-11T12:13:37;98169.31;;;5.81;63.15
48041;BME280;33815;48.386;11.738;2023-02-11T12:16:22;98163.50;;;6.25;61.26
48041;BME280;33815;48.386;11.738;2023-02-11T12:19:16;98161.38;;;6.48;58.10
48041;BME280;33815;48.386;11.738;2023-02-11T12:35:10;98171.16;;;4.75;64.19
48041;BME280;33815;48.386;11.738;2023-02-11T12:40:30;98158.69;;;4.66;66.09
48041;BME280;33815;48.386;11.738;2023-02-11T12:43:22;98163.56;;;5.25;68.32
48041;BME280;33815;48.386;11.738;2023-02-11T12:46:14;98143.09;;;5.71;64.30
48041;BME280;33815;48.386;11.738;2023-02-11T12:49:21;98133.03;;;5.98;63.29
48041;BME280;33815;48.386;11.738;2023-02-11T12:54:35;98121.75;;;6.62;61.96
48041;BME280;33815;48.386;11.738;2023-02-11T12:57:09;98131.66;;;6.85;60.99
48041;BME280;33815;48.386;11.738;2023-02-11T13:05:20;98088.34;;;6.88;58.95
48041;BME280;33815;48.386;11.738;2023-02-11T13:07:49;98106.22;;;7.07;60.62
48041;BME280;33815;48.386;11.738;2023-02-11T13:12:45;98073.72;;;7.59;58.35
48041;BME280;33815;48.386;11.738;2023-02-11T13:15:31;98079.94;;;7.27;58.06
48041;BME280;33815;48.386;11.738;2023-02-11T13:18:09;98090.88;;;7.32;58.17
48041;BME280;33815;48.386;11.738;2023-02-11T13:26:25;98104.69;;;7.47;58.75
48041;BME280;33815;48.386;11.738;2023-02-11T13:29:07;98089.22;;;8.02;57.50
48041;BME280;33815;48.386;11.738;2023-02-11T13:31:34;98103.44;;;7.82;56.76
48041;BME280;33815;48.386;11.738;2023-02-11T13:33:59;98102.84;;;7.49;57.90
48041;BME280;33815;48.386;11.738;2023-02-11T13:36:26;98094.56;;;7.57;58.48
48041;BME280;33815;48.386;11.738;2023-02-11T13:38:55;98093.84;;;7.55;58.34
48041;BME280;33815;48.386;11.738;2023-02-11T13:41:25;98093.56;;;7.45;58.97
48041;BME280;33815;48.386;11.738;2023-02-11T13:49:21;98066.47;;;7.78;56.79
48041;BME280;33815;48.386;11.738;2023-02-11T13:51:48;98090.34;;;7.56;58.66
48041;BME280;33815;48.386;11.738;2023-02-11T13:54:21;98077.91;;;7.47;58.42
48041;BME280;33815;48.386;11.738;2023-02-11T14:02:32;98099.03;;;7.12;58.61
48041;BME280;33815;48.386;11.738;2023-02-11T14:05:30;98101.31;;;6.88;58.68
48041;BME280;33815;48.386;11.738;2023-02-11T14:08:18;98096.91;;;6.74;60.33
48041;BME280;33815;48.386;11.738;2023-02-11T14:11:06;98104.31;;;6.80;60.59
48041;BME280;33815;48.386;11.738;2023-02-11T14:16:27;98109.25;;;6.54;61.01
48041;BME280;33815;48.386;11.738;2023-02-11T14:21:21;98110.69;;;6.44;61.53
48041;BME280;33815;48.386;11.738;2023-02-11T14:23:48;98123.31;;;6.50;61.87
48041;BME280;33815;48.386;11.738;2023-02-11T14:28:51;98122.56;;;6.32;63.49
48041;BME280;33815;48.386;11.738;2023-02-11T14:31:40;98123.72;;;6.42;62.89
48041;BME280;33815;48.386;11.738;2023-02-11T14:34:37;98120.50;;;6.39;64.51